AirNav   Air Wisconsin pilot careers
 
 506 users online  

4C3 Yalesville Heliport
Yalesville, Connecticut, USA

GOING TO YALESVILLE?


FAA INFORMATION EFFECTIVE 29 MARCH 2018

Location

FAA Identifier: 4C3
Lat/Long: 41-29-30.8000N / 072-48-40.2000W
41-29.513333N / 072-48.670000W
41.4918889 / -72.8111667
(estimated)
Elevation: 65 ft. / 20 m (estimated)
Variation: 14W (2000)
From city: 2 miles N of YALESVILLE, CT
Time zone: UTC -4 (UTC -5 during Standard Time)
Zip code: 06492

Heliport Operations

Heliport use: Open to the public
Activation date: 06/2002
Control tower: no
ARTCC: BOSTON CENTER
FSS: BRIDGEPORT FLIGHT SERVICE STATION
NOTAMs facility: BDR (NOTAM-D service available)
Attendance: MON-FRI 08:30 TO 17:00 LOCAL, ALL SATURDAY 0900-1600 LOCAL
Wind indicator: lighted
Segmented circle: no
Lights: PCL 123.50
Beacon: white-green-yellow (heliport)
ACTVT ROTG BCN - 123.50.

Heliport Communications

CTAF/UNICOM: 123.05
WX ASOS at MMK (1.3 nm NW): 134.925 (203-639-9405)
WX ASOS at HVN (14 nm S): PHONE 203-466-6205
WX AWOS-3PT at OXC (15 nm W): 132.975 (203-262-1190)
WX AWOS-3 at SNC (15 nm SE): 118.325 (860-526-1551)
WX ASOS at HFD (16 nm NE): PHONE 860-527-5837

Nearby radio navigation aids

VOR radial/distance  VOR name  Freq  Var
MADr346/11.9MADISON VOR/DME110.4013W
HVNr027/14.2NEW HAVEN VOR/DME109.8013W
HFDr246/14.8HARTFORD VOR/DME114.9013W
BDRr047/24.4BRIDGEPORT VOR/DME108.8012W
CCCr012/33.7CALVERTON VOR/DME117.2013W
GONr300/35.5GROTON VOR/DME110.8514W
ORWr278/36.7NORWICH VOR/DME110.0014W
CMKr082/36.9CARMEL VOR/DME116.6012W
PWLr127/39.1PAWLING VOR/DME114.3012W

 
NDB name  Hdg/Dist  Freq  Var  ID
CLERA078/15.136214WJWE .--- .-- .

Heliport Services

Fuel available: 100LL JET-A
CALL IN ADVANCE FOR FUEL 203-294-8800
Parking: hangars and tiedowns
Airframe service: MAJOR
Powerplant service: MAJOR
Bottled oxygen: NONE
Bulk oxygen: NONE

Runway Information

Helipad H1

Dimensions: 65 x 65 ft. / 20 x 20 m
Surface: concrete, in good condition
Traffic pattern: leftleft
Markings: basic, in fair condition

Heliport Ownership and Management from official FAA records

Ownership: Privately-owned
Owner: UNITED CONCRETE PRODUCTS
173 CHURCH STREET, ATTEN: JONATHAN GAVIN
YALESVILLE, CT 06492
Phone 203-269-3119
Manager: ANDREW HAYDEN
AIROCEAN AVIATION, LLC, , 120 CHURCH STREET
YALESVILLE, CT 06492
Phone 203-294-8800

Heliport Operational Statistics

Aircraft operations: avg 62/month *
67% transient general aviation
33% air taxi
* for 12-month period ending 30 September 2015

Additional Remarks

PILOTS UNFAMILIAR WITH HELIPORT CONTACT 203-294-8800 PRIOR TO ARRIVAL FOR A BRIEFING ON CURRENT PROCEDURES.

Instrument Procedures

There are no published instrument procedures at 4C3.

Some nearby airports with instrument procedures:

KMMK - Meriden Markham Municipal Airport (1 nm NW)
4B8 - Robertson Field Airport (12 nm N)
KHVN - Tweed-New Haven Airport (14 nm S)
KOXC - Waterbury-Oxford Airport (15 nm W)
KSNC - Chester Airport (15 nm SE)
KHFD - Hartford-Brainard Airport (16 nm NE)
 
Loc | Ops | Rwys | IFR | FBO | Links
Com | Nav | Svcs | Stats | Notes

Silver City Flying Club
 
Area around 4C3 (Yalesville Heliport)
 
Road maps at: MapQuest Bing Google
 
Aerial photo
WARNING: Photo may not be current or correct
Aerial photo of 4C3 (Yalesville Heliport)
Photo courtesy of AirOcean Aviation, LLC
Taken in October 2008
from a Schweizer 300 helicopter

Do you have a better or more recent aerial photo of Yalesville Heliport that you would like to share? If so, please send us your photo.

 
Sectional chart

 
Airport distance calculator
Flying to Yalesville Heliport? Find the distance to fly.

From to 4C3

Sunrise and sunset
Times for 19-Apr-2018
 Local
(UTC-4)
 Zulu
(UTC)
Morning civil twilight05:3709:37
Sunrise06:0610:06
Sunset19:3523:35
Evening civil twilight20:0400:04

Current date and time
Zulu (UTC)  19-Apr-2018 10:45:20
Local (UTC-4)  19-Apr-2018 06:45:20
 
METAR
KMMK 
2nm NW 
190953Z AUTO 00000KT 7SM RA OVC060 03/02 A2973 RMK AO2 SLP067 P0006 T00330017
KHVN 
14nm S 
190953Z 08003KT 5SM RA BR FEW038 OVC049 05/03 A2974 RMK AO2 SLP071 P0015 T00500028
KOXC 
14nm W 
190951Z AUTO 00000KT 8SM UP OVC060 03/01 A2972 RMK AO2 RAE47UPB47 SLP081 P0005 T00280011
KSNC 
15nm SE 
191035Z AUTO 00000KT 5SM -RA FEW001 BKN033 OVC060 04/03 A2973 RMK AO2
KHFD 
16nm NE 
190953Z 33004KT 8SM -RA OVC065 05/01 A2975 RMK AO2 RAB13 SLP074 P0002 T00500011
TAF
KBDR 
24nm SW 
190838Z 1909/2006 05005KT 6SM -RA SCT025 OVC050 FM191300 03009KT 5SM BR VCSH OVC025 FM191700 35010KT 4SM -RA BR BKN009 OVC015 FM192100 31011KT 6SM -SHRA BKN025 FM192300 30013G21KT P6SM BKN040
KBDL 
27nm N 
190549Z 1906/2012 VRB03KT P6SM SCT060 FM190900 00000KT 6SM -RA OVC060 FM191300 VRB03KT 4SM -RASN BR OVC015 FM191700 32004KT 4SM -RA OVC020 FM200000 31005KT P6SM VCSH OVC035
NOTAMs
Click for the latest NOTAMs
NOTAMs are issued by the DoD/FAA and will open in a separate window not controlled by AirNav.

 

 
 

FBO, Fuel Providers, and Aircraft Ground Support

  
 Business Name 
 
 Contact 
 
 Services / Description 
 
Fuel Prices
 
Comments
  
 AirOcean Aviation, LLC
203-294-8800
[web site]
[email]
Airport management, Aviation fuel, Aircraft parking (ramp or tiedown), Hangars, Hangar leasing / sales, GPU / Power cart, Flight training, Aircraft rental, ...

More info about AirOcean Aviation, LLC
Phillips 66
100LL Jet A
FS $5.50 $4.75 
 Updated 18-Apr-2018
 
   write
FS=Full service
Update Fuel Prices
 

Would you like to see your business listed on this page?

 If your business provides an interesting product or service to pilots, flight crews, aircraft, or users of the Yalesville Heliport, you should consider listing it here.  To start the listing process, click on the button below
 
Add a business
 

Other Pages about Yalesville Heliport

Update a link
 
Copyright © AirNav, LLC. All rights reserved. Privacy Policy  Contact